createdAt,value
2022-10-24T00:01:06.253Z,25.50
2022-10-24T00:03:32.909Z,26.05
2022-10-24T00:05:59.215Z,26.35
2022-10-24T00:08:25.631Z,24.83
2022-10-24T00:10:51.908Z,24.70
2022-10-24T00:13:18.324Z,24.90
2022-10-24T00:15:44.597Z,25.25
2022-10-24T00:18:10.981Z,25.23
2022-10-24T00:20:37.276Z,25.70
2022-10-24T00:23:03.539Z,24.98
2022-10-24T00:25:29.869Z,23.73
2022-10-24T00:27:56.373Z,24.75
2022-10-24T00:30:22.666Z,24.25
2022-10-24T00:32:49.089Z,24.08
2022-10-24T00:35:15.385Z,23.38
2022-10-24T00:37:41.889Z,23.58
2022-10-24T00:40:08.208Z,22.75
2022-10-24T00:42:34.644Z,23.02
2022-10-24T00:45:01.036Z,21.95
2022-10-24T00:47:27.471Z,22.77
2022-10-24T00:49:53.766Z,22.45
2022-10-24T00:52:20.005Z,22.17
2022-10-24T00:54:46.658Z,22.08
2022-10-24T00:57:12.940Z,21.90
2022-10-24T00:59:39.218Z,21.70
2022-10-24T01:02:05.700Z,21.05
2022-10-24T01:04:32.480Z,21.85
2022-10-24T01:06:58.796Z,20.98
2022-10-24T01:09:25.122Z,21.77
2022-10-24T01:11:51.498Z,20.17
2022-10-24T01:14:19.319Z,21.23
2022-10-24T01:16:45.681Z,20.52
2022-10-24T01:19:13.179Z,20.65
2022-10-24T01:21:39.552Z,20.92
2022-10-24T01:24:05.879Z,20.60
2022-10-24T01:26:32.277Z,20.77
2022-10-24T01:28:58.550Z,19.77
2022-10-24T01:31:25.044Z,19.90
2022-10-24T01:33:51.304Z,20.52
2022-10-24T01:36:17.547Z,19.95
2022-10-24T01:38:43.798Z,18.80
2022-10-24T01:41:10.490Z,19.40
2022-10-24T01:43:36.918Z,19.35
2022-10-24T01:46:03.320Z,19.55
2022-10-24T01:48:29.651Z,19.05
2022-10-24T01:50:55.936Z,19.08
2022-10-24T01:53:24.804Z,18.25
2022-10-24T01:55:51.661Z,19.03
2022-10-24T01:58:18.072Z,18.38
2022-10-24T02:00:44.728Z,18.48
2022-10-24T02:03:11.075Z,18.85
2022-10-24T02:05:37.463Z,18.20
2022-10-24T02:08:03.767Z,17.75
2022-10-24T02:10:30.052Z,17.52
2022-10-24T02:12:56.458Z,18.10
2022-10-24T02:15:22.767Z,17.85
2022-10-24T02:17:49.052Z,18.05
2022-10-24T02:20:15.584Z,17.73
2022-10-24T02:22:42.581Z,17.15
2022-10-24T02:25:08.910Z,17.65
2022-10-24T02:27:35.267Z,17.63
2022-10-24T02:30:01.649Z,15.93
2022-10-24T02:32:28.239Z,16.95
2022-10-24T02:34:54.533Z,17.25
2022-10-24T02:37:20.993Z,16.88
2022-10-24T02:39:47.301Z,16.77
2022-10-24T02:42:13.682Z,16.45
2022-10-24T02:44:39.923Z,16.30
2022-10-24T02:47:06.161Z,15.05
2022-10-24T02:49:32.421Z,16.05
2022-10-24T02:51:58.955Z,16.02
2022-10-24T02:54:25.897Z,16.17
2022-10-24T02:56:52.198Z,16.52
2022-10-24T02:59:18.542Z,15.60
2022-10-24T03:01:44.952Z,15.82
2022-10-24T03:04:11.322Z,15.07
2022-10-24T03:06:38.307Z,15.52
2022-10-24T03:09:04.606Z,16.80
2022-10-24T03:11:31.889Z,15.45
2022-10-24T03:13:58.167Z,15.35
2022-10-24T03:16:24.480Z,15.70
2022-10-24T03:18:50.909Z,15.40
2022-10-24T03:21:17.392Z,15.75
2022-10-24T03:23:43.676Z,14.88
2022-10-24T03:26:09.947Z,14.93
2022-10-24T03:28:36.386Z,14.32
2022-10-24T03:31:02.917Z,15.60
2022-10-24T03:33:29.306Z,14.55
2022-10-24T03:35:55.646Z,14.25
2022-10-24T03:38:22.104Z,14.65
2022-10-24T03:40:48.433Z,15.05
2022-10-24T03:43:14.817Z,14.30
2022-10-24T03:45:41.164Z,13.05
2022-10-24T03:48:07.684Z,14.07
2022-10-24T03:50:34.019Z,13.52
2022-10-24T03:53:00.451Z,14.60
2022-10-24T03:55:26.840Z,14.52
2022-10-24T03:57:53.133Z,14.07
2022-10-24T04:00:19.471Z,13.60
2022-10-24T04:02:45.816Z,14.00
2022-10-24T04:05:13.682Z,13.70
2022-10-24T04:07:39.939Z,13.52
2022-10-24T04:10:06.152Z,13.27
2022-10-24T04:12:32.561Z,13.18
2022-10-24T04:15:02.436Z,14.25
2022-10-24T04:17:31.956Z,13.20
2022-10-24T04:19:58.279Z,13.70
2022-10-24T04:22:24.524Z,12.75
2022-10-24T04:24:50.803Z,13.57
2022-10-24T04:27:17.097Z,13.43
2022-10-24T04:29:43.734Z,12.75
2022-10-24T04:32:10.125Z,13.88
2022-10-24T04:34:36.514Z,13.13
2022-10-24T04:37:02.780Z,13.13
2022-10-24T04:39:29.204Z,13.27
2022-10-24T04:41:55.726Z,13.85
2022-10-24T04:44:22.145Z,12.27
2022-10-24T04:46:50.715Z,12.75
2022-10-24T04:49:18.666Z,12.45
2022-10-24T04:51:45.251Z,12.25
2022-10-24T04:54:11.875Z,12.02
2022-10-24T04:56:38.295Z,12.35
2022-10-24T04:59:04.598Z,11.48
2022-10-24T05:01:30.934Z,12.20
2022-10-24T05:03:57.445Z,12.15
2022-10-24T05:06:23.749Z,12.98
2022-10-24T05:08:50.107Z,12.70
2022-10-24T05:11:16.723Z,12.25
2022-10-24T05:13:43.264Z,12.15
2022-10-24T05:16:10.055Z,13.20
2022-10-24T05:18:36.371Z,12.05
2022-10-24T05:21:02.679Z,11.73
2022-10-24T05:23:28.989Z,12.05
2022-10-24T05:25:55.517Z,12.02
2022-10-24T05:28:21.822Z,11.88
2022-10-24T05:30:48.161Z,12.45
2022-10-24T05:33:14.489Z,12.38
2022-10-24T05:35:40.845Z,12.02
2022-10-24T05:38:07.273Z,11.77
2022-10-24T05:40:33.833Z,11.13
2022-10-24T05:43:00.307Z,11.27
2022-10-24T05:45:27.449Z,11.45
2022-10-24T05:47:53.800Z,11.20
2022-10-24T05:50:20.152Z,10.50
2022-10-24T05:52:47.275Z,10.57
2022-10-24T05:55:16.948Z,10.85
2022-10-24T06:00:17.568Z,10.68
2022-10-24T06:02:43.984Z,10.93
2022-10-24T06:05:10.378Z,10.75
2022-10-24T06:07:36.589Z,11.13
2022-10-24T06:10:03.066Z,10.40
2022-10-24T06:12:29.473Z,11.30
2022-10-24T06:14:56.049Z,10.80
2022-10-24T06:17:22.549Z,9.88
2022-10-24T06:22:20.358Z,10.20
2022-10-24T06:24:46.905Z,9.98
2022-10-24T06:27:13.588Z,9.80
2022-10-24T06:29:40.207Z,10.02
2022-10-24T06:32:06.658Z,9.68
2022-10-24T06:34:33.007Z,10.75
2022-10-24T06:36:59.273Z,10.35
2022-10-24T06:39:25.821Z,10.38
2022-10-24T06:41:52.147Z,10.10
2022-10-24T06:44:18.494Z,10.10
2022-10-24T06:46:44.764Z,9.68
2022-10-24T06:49:11.436Z,9.98
2022-10-24T06:51:37.735Z,10.15
2022-10-24T06:56:43.932Z,9.70
2022-10-24T06:59:11.140Z,9.82
2022-10-24T07:01:37.747Z,9.88
2022-10-24T07:04:04.056Z,9.95
2022-10-24T07:06:30.404Z,9.38
2022-10-24T07:08:56.670Z,10.05
2022-10-24T07:11:23.072Z,10.25
2022-10-24T07:13:49.454Z,10.60
2022-10-24T07:16:15.966Z,10.02
2022-10-24T07:18:42.326Z,10.10
2022-10-24T07:21:08.732Z,8.80
2022-10-24T07:23:35.018Z,10.15
2022-10-24T07:26:01.336Z,9.18
2022-10-24T07:28:27.735Z,9.80
2022-10-24T07:30:54.026Z,10.05
2022-10-24T07:33:20.328Z,9.82
2022-10-24T07:35:46.739Z,9.45
2022-10-24T07:38:16.442Z,9.43
2022-10-24T07:40:44.885Z,9.55
2022-10-24T07:43:11.225Z,9.80
2022-10-24T07:45:37.685Z,10.02
2022-10-24T07:48:04.267Z,9.57
2022-10-24T07:50:30.624Z,9.63
2022-10-24T07:52:56.956Z,9.50
2022-10-24T07:55:23.214Z,9.70
2022-10-24T07:57:49.782Z,8.85
2022-10-24T08:00:16.622Z,9.32
2022-10-24T08:02:43.099Z,9.82
2022-10-24T08:05:09.601Z,9.13
2022-10-24T08:07:35.909Z,9.50
2022-10-24T08:10:02.351Z,9.32
2022-10-24T08:12:28.725Z,8.65
2022-10-24T08:14:55.068Z,9.02
2022-10-24T08:17:22.135Z,9.05
2022-10-24T08:19:48.713Z,9.15
2022-10-24T08:22:15.271Z,9.70
2022-10-24T08:24:41.665Z,9.52
2022-10-24T08:27:08.155Z,9.43
2022-10-24T08:29:34.466Z,9.02
2022-10-24T08:32:00.765Z,9.32
2022-10-24T08:34:27.167Z,8.68
2022-10-24T08:36:53.589Z,9.02
2022-10-24T08:39:19.919Z,8.95
2022-10-24T08:41:46.435Z,8.55
2022-10-24T08:44:12.777Z,8.57
2022-10-24T08:46:39.525Z,8.45
2022-10-24T08:49:06.006Z,8.10
2022-10-24T08:51:32.368Z,8.88
2022-10-24T08:53:58.722Z,8.43
2022-10-24T08:56:25.011Z,8.70
2022-10-24T08:58:51.558Z,8.82
2022-10-24T09:01:18.072Z,8.77
2022-10-24T09:03:55.503Z,8.48
2022-10-24T09:06:22.701Z,8.27
2022-10-24T09:08:49.395Z,8.23
2022-10-24T09:11:15.895Z,8.18
2022-10-24T09:13:42.508Z,8.45
2022-10-24T09:16:08.793Z,8.55
2022-10-24T09:18:35.257Z,8.60
2022-10-24T09:21:01.651Z,8.07
2022-10-24T09:23:28.363Z,8.98
2022-10-24T09:25:54.693Z,8.07
2022-10-24T09:28:21.234Z,8.30
2022-10-24T09:30:47.737Z,8.30
2022-10-24T09:33:14.133Z,7.95
2022-10-24T09:38:21.038Z,7.75
2022-10-24T09:40:47.499Z,7.85
2022-10-24T09:43:13.789Z,7.47
2022-10-24T09:45:40.264Z,7.38
2022-10-24T09:48:06.900Z,8.13
2022-10-24T09:50:33.243Z,7.78
2022-10-24T09:52:59.770Z,8.05
2022-10-24T09:55:26.291Z,7.43
2022-10-24T09:57:52.630Z,7.43
2022-10-24T10:00:19.010Z,7.68
2022-10-24T10:02:45.848Z,7.70
2022-10-24T10:05:12.248Z,7.03
2022-10-24T10:07:38.522Z,7.53
2022-10-24T10:10:04.954Z,7.22
2022-10-24T10:12:31.301Z,7.95
2022-10-24T10:14:57.738Z,8.02
2022-10-24T10:17:24.672Z,7.55
2022-10-24T10:19:51.049Z,6.80
2022-10-24T10:22:24.801Z,7.00
2022-10-24T10:24:51.119Z,7.60
2022-10-24T10:27:17.504Z,6.85
2022-10-24T10:29:43.974Z,7.50
2022-10-24T10:32:10.408Z,6.78
2022-10-24T10:34:36.807Z,7.10
2022-10-24T10:37:03.152Z,7.00
2022-10-24T10:39:29.496Z,7.35
2022-10-24T10:44:27.218Z,7.00
2022-10-24T10:46:53.615Z,6.75
2022-10-24T10:49:19.944Z,7.22
2022-10-24T10:51:46.377Z,7.13
2022-10-24T10:54:12.675Z,6.90
2022-10-24T10:56:39.291Z,6.85
2022-10-24T10:59:06.637Z,6.85
2022-10-24T11:01:33.433Z,7.07
2022-10-24T11:04:00.038Z,6.93
2022-10-24T11:06:26.380Z,7.43
2022-10-24T11:08:52.794Z,7.05
2022-10-24T11:11:19.181Z,7.25
2022-10-24T11:13:46.215Z,6.78
2022-10-24T11:16:12.470Z,6.90
2022-10-24T11:18:38.936Z,6.78
2022-10-24T11:21:05.392Z,6.78
2022-10-24T11:28:46.145Z,6.78
2022-10-24T11:31:12.494Z,6.07
2022-10-24T11:33:38.754Z,6.55
2022-10-24T11:36:05.093Z,6.63
2022-10-24T11:38:31.498Z,6.78
2022-10-24T11:40:58.913Z,6.25
2022-10-24T11:43:27.285Z,61.97
2022-10-24T11:45:53.888Z,413.70
2022-10-24T11:48:20.192Z,323.08
2022-10-24T11:50:46.576Z,208.82
2022-10-24T11:53:13.023Z,178.35
2022-10-24T11:55:40.212Z,173.10
2022-10-24T11:58:07.353Z,162.63
2022-10-24T12:00:33.780Z,157.80
2022-10-24T12:05:29.265Z,150.35
2022-10-24T12:07:55.537Z,151.90
2022-10-24T12:10:23.297Z,146.52
2022-10-24T12:12:49.758Z,146.38
2022-10-24T12:15:16.281Z,144.70
2022-10-24T12:17:43.008Z,143.85
2022-10-24T12:20:09.732Z,141.95
2022-10-24T12:22:35.999Z,140.75
2022-10-24T12:27:38.165Z,137.13
2022-10-24T12:30:04.577Z,134.23
2022-10-24T12:32:30.839Z,134.88
2022-10-24T12:35:12.312Z,132.27
2022-10-24T12:37:46.830Z,131.93
2022-10-24T12:42:40.256Z,123.15
2022-10-24T12:45:07.260Z,122.50
2022-10-24T12:47:33.749Z,122.38
2022-10-24T12:50:00.007Z,121.75
2022-10-24T12:52:26.456Z,120.65
2022-10-24T12:54:52.705Z,117.72
2022-10-24T12:57:19.021Z,118.13
2022-10-24T12:59:45.374Z,113.28
2022-10-24T13:02:12.023Z,112.05
2022-10-24T13:04:38.505Z,115.53
2022-10-24T13:07:04.862Z,111.20
2022-10-24T13:09:32.157Z,111.63
2022-10-24T13:11:58.455Z,108.80
2022-10-24T13:14:24.766Z,110.47
2022-10-24T13:16:51.066Z,111.00
2022-10-24T13:19:17.675Z,104.30
2022-10-24T13:21:46.360Z,108.70
2022-10-24T13:24:13.288Z,105.15
2022-10-24T13:26:39.579Z,102.18
2022-10-24T13:29:06.029Z,103.68
2022-10-24T13:31:32.426Z,104.57
2022-10-24T13:33:58.729Z,102.80
2022-10-24T13:36:28.404Z,102.90
2022-10-24T13:38:55.025Z,100.32
2022-10-24T13:41:21.688Z,97.07
2022-10-24T13:43:48.030Z,97.38
2022-10-24T13:46:14.428Z,96.10
2022-10-24T13:48:40.847Z,94.82
2022-10-24T13:51:07.153Z,94.40
2022-10-24T13:53:33.596Z,93.10
2022-10-24T13:55:59.798Z,91.80
2022-10-24T13:58:26.088Z,92.28
2022-10-24T14:00:52.345Z,89.47
2022-10-24T14:03:18.695Z,88.72
2022-10-24T14:05:45.265Z,85.05
2022-10-24T14:08:11.678Z,87.30
2022-10-24T14:10:37.958Z,84.80
2022-10-24T14:13:04.273Z,84.47
2022-10-24T14:15:30.853Z,82.28
2022-10-24T14:17:57.117Z,80.50
2022-10-24T14:20:23.393Z,77.53
2022-10-24T14:22:49.806Z,79.55
2022-10-24T14:25:18.697Z,78.40
2022-10-24T14:27:47.315Z,76.03
2022-10-24T14:30:13.925Z,79.65
2022-10-24T14:35:09.458Z,71.57
2022-10-24T14:37:35.746Z,67.10
2022-10-24T14:40:02.129Z,89.57
2022-10-24T14:42:28.634Z,205.32
2022-10-24T14:44:58.175Z,168.07
2022-10-24T14:47:24.782Z,139.93
2022-10-24T14:49:51.300Z,133.40
2022-10-24T14:52:17.602Z,130.25
2022-10-24T14:54:44.004Z,119.40
2022-10-24T14:57:12.882Z,329.75
2022-10-24T14:59:39.908Z,434.23
2022-10-24T15:02:06.287Z,526.42
2022-10-24T15:04:32.552Z,410.85
2022-10-24T15:06:58.812Z,330.50
2022-10-24T15:09:25.124Z,302.40
2022-10-24T15:11:51.444Z,291.42
2022-10-24T15:14:17.716Z,287.65
2022-10-24T15:16:44.071Z,279.05
2022-10-24T15:19:10.454Z,266.25
2022-10-24T15:21:36.744Z,251.48
2022-10-24T15:24:03.252Z,255.55
2022-10-24T15:26:29.509Z,250.45
2022-10-24T15:28:55.846Z,244.80
2022-10-24T15:31:22.501Z,352.95
2022-10-24T15:33:48.819Z,410.83
2022-10-24T15:36:15.210Z,376.15
2022-10-24T15:38:41.592Z,370.80
2022-10-24T15:41:07.924Z,363.10
2022-10-24T15:43:34.196Z,352.05
2022-10-24T15:46:00.471Z,352.30
2022-10-24T15:48:26.829Z,353.38
2022-10-24T15:50:53.103Z,356.33
2022-10-24T15:53:19.657Z,466.40
2022-10-24T15:55:46.081Z,471.73
2022-10-24T15:58:12.408Z,456.00
2022-10-24T16:00:38.713Z,418.52
2022-10-24T16:03:05.381Z,424.45
2022-10-24T16:05:31.684Z,419.23
2022-10-24T16:07:58.081Z,414.42
2022-10-24T16:10:24.828Z,411.98
2022-10-24T16:12:51.141Z,401.25
2022-10-24T16:15:17.964Z,389.83
2022-10-24T16:17:44.451Z,397.27
2022-10-24T16:20:10.941Z,508.00
2022-10-24T16:22:37.695Z,538.45
2022-10-24T16:25:03.995Z,524.30
2022-10-24T16:27:30.284Z,498.92
2022-10-24T16:29:56.650Z,495.30
2022-10-24T16:32:22.965Z,481.35
2022-10-24T16:34:49.295Z,480.02
2022-10-24T16:37:15.555Z,467.33
2022-10-24T16:39:42.106Z,466.65
2022-10-24T16:42:09.485Z,453.80
2022-10-24T16:44:35.901Z,447.55
2022-10-24T16:47:02.228Z,444.02
2022-10-24T16:49:28.709Z,444.10
2022-10-24T16:51:55.061Z,480.58
2022-10-24T16:54:21.533Z,499.13
2022-10-24T16:56:52.537Z,532.63
2022-10-24T16:59:20.014Z,516.30
2022-10-24T17:01:46.485Z,506.83
2022-10-24T17:04:13.181Z,498.65
2022-10-24T17:06:39.643Z,488.35
2022-10-24T17:09:05.939Z,473.77
2022-10-24T17:11:44.761Z,472.67
2022-10-24T17:14:12.214Z,472.90
2022-10-24T17:16:38.479Z,535.20
2022-10-24T17:19:15.774Z,552.35
2022-10-24T17:21:43.251Z,556.95
2022-10-24T17:24:09.504Z,534.70
2022-10-24T17:26:35.836Z,537.33
2022-10-24T17:29:02.197Z,523.13
2022-10-24T17:31:28.434Z,512.90
2022-10-24T17:33:54.714Z,505.80
2022-10-24T17:36:21.452Z,496.85
2022-10-24T17:38:47.893Z,499.08
2022-10-24T17:41:14.147Z,552.80
2022-10-24T17:43:40.532Z,625.00
2022-10-24T17:46:06.770Z,593.70
2022-10-24T17:48:33.075Z,554.17
2022-10-24T17:50:59.413Z,491.88
2022-10-24T17:53:25.885Z,501.75
2022-10-24T17:55:52.177Z,462.65
2022-10-24T17:58:18.409Z,443.98
2022-10-24T18:00:45.514Z,396.45
2022-10-24T18:03:12.011Z,383.98
2022-10-24T18:05:38.887Z,359.40
2022-10-24T18:08:05.570Z,348.67
2022-10-24T18:10:34.714Z,331.15
2022-10-24T18:13:01.192Z,319.23
2022-10-24T18:15:27.482Z,311.42
2022-10-24T18:17:53.885Z,302.95
2022-10-24T18:20:20.299Z,296.33
2022-10-24T18:22:46.789Z,329.60
2022-10-24T18:25:13.203Z,356.42
2022-10-24T18:27:39.603Z,369.40
2022-10-24T18:30:06.012Z,373.45
2022-10-24T18:32:32.398Z,364.83
2022-10-24T18:34:58.793Z,357.55
2022-10-24T18:37:25.063Z,358.05
2022-10-24T18:39:51.367Z,347.00
2022-10-24T18:42:17.594Z,335.75
2022-10-24T18:44:46.463Z,336.58
2022-10-24T18:47:18.763Z,330.48
2022-10-24T18:49:47.423Z,379.60
2022-10-24T18:52:13.769Z,436.95
2022-10-24T18:54:40.206Z,445.77
2022-10-24T18:57:06.515Z,430.63
2022-10-24T18:59:32.877Z,426.58
2022-10-24T19:01:59.479Z,407.20
2022-10-24T19:04:26.066Z,407.92
2022-10-24T19:06:52.390Z,387.10
2022-10-24T19:09:18.920Z,385.10
2022-10-24T19:11:45.248Z,382.33
2022-10-24T19:14:11.481Z,378.42
2022-10-24T19:16:37.895Z,408.58
2022-10-24T19:19:04.472Z,460.40
2022-10-24T19:21:30.828Z,466.65
2022-10-24T19:23:57.079Z,450.10
2022-10-24T19:26:23.419Z,431.52
2022-10-24T19:28:49.723Z,424.42
2022-10-24T19:31:16.011Z,416.55
2022-10-24T19:33:42.544Z,415.10
2022-10-24T19:36:09.359Z,405.77
2022-10-24T19:38:35.847Z,420.95
2022-10-24T19:41:02.253Z,469.10
2022-10-24T19:43:28.924Z,517.00
2022-10-24T19:46:07.621Z,485.77
2022-10-24T19:48:34.723Z,468.37
2022-10-24T19:51:01.303Z,459.92
2022-10-24T19:53:27.568Z,451.00
2022-10-24T19:55:54.265Z,514.30
2022-10-24T19:58:20.636Z,581.45
2022-10-24T20:00:47.043Z,547.08
2022-10-24T20:03:13.402Z,538.00
2022-10-24T20:05:40.018Z,531.75
2022-10-24T20:08:06.377Z,525.08
2022-10-24T20:10:32.746Z,517.00
2022-10-24T20:12:59.076Z,507.50
2022-10-24T20:15:25.793Z,510.65
2022-10-24T20:17:52.339Z,505.25
2022-10-24T20:20:18.641Z,488.30
2022-10-24T20:22:45.304Z,486.45
2022-10-24T20:25:11.779Z,489.63
2022-10-24T20:27:38.128Z,476.70
2022-10-24T20:30:04.466Z,472.52
2022-10-24T20:32:30.729Z,480.27
2022-10-24T20:34:57.035Z,486.75
2022-10-24T20:37:23.560Z,475.13
2022-10-24T20:39:49.984Z,462.63
2022-10-24T20:42:16.282Z,456.73
2022-10-24T20:44:42.637Z,441.48
2022-10-24T20:47:08.913Z,568.95
2022-10-24T20:49:35.308Z,654.67
2022-10-24T20:52:01.940Z,729.85
2022-10-24T20:54:28.388Z,654.47
2022-10-24T20:56:54.924Z,585.08
2022-10-24T20:59:21.430Z,552.42
2022-10-24T21:01:47.858Z,540.97
2022-10-24T21:04:17.024Z,529.20
2022-10-24T21:06:46.242Z,520.65
2022-10-24T21:09:12.522Z,684.83
2022-10-24T21:11:38.830Z,739.28
2022-10-24T21:14:05.130Z,679.83
2022-10-24T21:16:31.638Z,629.70
2022-10-24T21:18:57.903Z,618.63
2022-10-24T21:21:24.249Z,734.50
2022-10-24T21:23:50.456Z,782.10
2022-10-24T21:26:17.007Z,743.05
2022-10-24T21:28:43.448Z,706.95
2022-10-24T21:31:09.736Z,687.67
2022-10-24T21:33:36.014Z,670.58
2022-10-24T21:36:02.317Z,663.38
2022-10-24T21:38:28.615Z,653.40
2022-10-24T21:40:54.923Z,642.67
2022-10-24T21:43:21.202Z,639.42
2022-10-24T21:45:47.574Z,632.85
2022-10-24T21:48:15.877Z,625.95
2022-10-24T21:50:42.500Z,622.28
2022-10-24T21:53:08.796Z,617.15
2022-10-24T21:55:35.108Z,614.17
2022-10-24T21:58:01.613Z,608.13
2022-10-24T22:00:27.921Z,606.70
2022-10-24T22:02:54.274Z,601.10
2022-10-24T22:05:20.634Z,595.13
2022-10-24T22:07:49.527Z,589.03
2022-10-24T22:10:16.158Z,588.05
2022-10-24T22:12:42.418Z,591.83
2022-10-24T22:15:08.716Z,589.13
2022-10-24T22:17:35.017Z,584.58
2022-10-24T22:20:01.261Z,588.97
2022-10-24T22:22:27.563Z,580.55
2022-10-24T22:24:54.010Z,574.60
2022-10-24T22:27:20.333Z,579.25
2022-10-24T22:29:47.024Z,571.40
2022-10-24T22:32:13.627Z,567.78
2022-10-24T22:34:40.021Z,568.03
2022-10-24T22:37:06.330Z,564.50
2022-10-24T22:39:32.800Z,566.03
2022-10-24T22:41:59.258Z,559.97
2022-10-24T22:44:25.641Z,556.05
2022-10-24T22:46:51.924Z,559.38
2022-10-24T22:49:18.221Z,552.60
2022-10-24T22:51:44.619Z,543.83
2022-10-24T22:54:10.889Z,543.88
2022-10-24T22:56:37.172Z,545.80
2022-10-24T22:59:03.761Z,540.72
2022-10-24T23:01:30.437Z,534.22
2022-10-24T23:03:56.967Z,533.08
2022-10-24T23:06:23.378Z,526.13
2022-10-24T23:08:49.652Z,526.38
2022-10-24T23:11:15.945Z,526.60
2022-10-24T23:13:42.259Z,520.38
2022-10-24T23:16:08.493Z,520.38
2022-10-24T23:18:34.761Z,516.83
2022-10-24T23:21:01.026Z,516.75
2022-10-24T23:23:29.538Z,505.55
2022-10-24T23:25:56.117Z,508.85
2022-10-24T23:28:22.448Z,500.65
2022-10-24T23:30:48.802Z,499.33
2022-10-24T23:33:15.101Z,498.35
2022-10-24T23:35:41.400Z,505.67
2022-10-24T23:38:08.184Z,497.38
2022-10-24T23:40:34.604Z,492.15
2022-10-24T23:43:01.015Z,499.90
2022-10-24T23:45:27.288Z,493.75
2022-10-24T23:47:53.582Z,485.10
2022-10-24T23:50:19.954Z,486.20
2022-10-24T23:52:46.678Z,482.50
2022-10-24T23:55:13.321Z,483.00
2022-10-24T23:57:39.787Z,472.70
